createdAt,value
2023-05-16T00:01:05.386Z,97.61
2023-05-16T00:06:07.987Z,97.52
2023-05-16T00:11:10.541Z,97.10
2023-05-16T00:16:14.599Z,96.92
2023-05-16T00:21:17.285Z,97.07
2023-05-16T00:26:20.294Z,96.85
2023-05-16T00:31:23.241Z,96.22
2023-05-16T00:36:25.965Z,96.13
2023-05-16T00:41:28.604Z,95.51
2023-05-16T00:46:31.159Z,95.63
2023-05-16T00:51:34.093Z,95.08
2023-05-16T00:56:36.934Z,94.94
2023-05-16T01:01:41.435Z,94.63
2023-05-16T01:06:44.739Z,94.64
2023-05-16T01:11:55.925Z,94.48
2023-05-16T01:17:12.632Z,94.38
2023-05-16T01:22:37.418Z,94.42
2023-05-16T01:27:40.869Z,94.42
2023-05-16T01:32:43.776Z,94.46
2023-05-16T01:38:00.887Z,94.76
2023-05-16T01:43:08.619Z,94.56
2023-05-16T01:48:17.974Z,94.64
2023-05-16T01:53:29.590Z,95.05
2023-05-16T01:58:33.898Z,95.27
2023-05-16T02:03:36.448Z,95.43
2023-05-16T02:08:39.070Z,95.62
2023-05-16T02:13:42.603Z,95.87
2023-05-16T02:18:45.837Z,95.64
2023-05-16T02:23:48.464Z,95.58
2023-05-16T02:28:51.203Z,95.29
2023-05-16T02:33:53.752Z,95.73
2023-05-16T02:38:56.297Z,94.93
2023-05-16T02:43:58.798Z,95.29
2023-05-16T02:49:01.884Z,95.15
2023-05-16T02:54:04.687Z,94.78
2023-05-16T02:59:07.565Z,94.80
2023-05-16T03:04:10.191Z,94.83
2023-05-16T03:09:12.752Z,94.82
2023-05-16T03:14:15.263Z,94.82
2023-05-16T03:19:17.860Z,94.37
2023-05-16T03:24:22.882Z,94.45
2023-05-16T03:29:27.104Z,93.92
2023-05-16T03:34:29.647Z,93.64
2023-05-16T03:39:32.148Z,93.35
2023-05-16T03:44:34.646Z,93.22
2023-05-16T03:49:37.422Z,93.15
2023-05-16T03:54:40.021Z,93.14
2023-05-16T03:59:42.838Z,92.94
2023-05-16T04:04:45.832Z,92.40
2023-05-16T04:09:48.440Z,92.52
2023-05-16T04:14:50.978Z,92.24
2023-05-16T04:19:53.517Z,92.00
2023-05-16T04:24:57.053Z,92.56
2023-05-16T04:29:59.861Z,92.62
2023-05-16T04:35:02.851Z,93.52
2023-05-16T04:40:07.697Z,93.87
2023-05-16T04:45:14.597Z,94.02
2023-05-16T04:50:18.131Z,94.74
2023-05-16T04:55:20.844Z,94.73
2023-05-16T05:00:23.593Z,95.40
2023-05-16T05:05:26.364Z,95.52
2023-05-16T05:10:31.088Z,96.19
2023-05-16T05:15:33.710Z,96.79
2023-05-16T05:20:36.272Z,97.12
2023-05-16T05:25:39.415Z,97.24
2023-05-16T05:30:43.184Z,97.24
2023-05-16T05:35:46.000Z,97.69
2023-05-16T05:40:49.617Z,98.23
2023-05-16T05:45:52.368Z,97.96
2023-05-16T05:50:54.954Z,97.50
2023-05-16T05:55:57.451Z,96.75
2023-05-16T06:01:00.042Z,95.96
2023-05-16T06:06:03.947Z,93.59
2023-05-16T06:11:07.399Z,92.04
2023-05-16T06:16:09.986Z,90.94
2023-05-16T06:21:12.624Z,89.82
2023-05-16T06:26:15.767Z,88.43
2023-05-16T06:31:18.339Z,88.36
2023-05-16T06:36:21.098Z,88.13
2023-05-16T06:41:23.718Z,87.60
2023-05-16T06:46:26.346Z,88.14
2023-05-16T06:51:29.063Z,88.75
2023-05-16T06:56:32.809Z,89.04
2023-05-16T07:01:35.450Z,89.33
2023-05-16T07:06:38.355Z,87.75
2023-05-16T07:11:41.060Z,86.84
2023-05-16T07:16:44.141Z,85.82
2023-05-16T07:21:46.884Z,84.35
2023-05-16T07:26:50.202Z,84.82
2023-05-16T07:31:52.945Z,83.23
2023-05-16T07:36:55.716Z,82.32
2023-05-16T07:41:58.478Z,81.13
2023-05-16T07:47:01.104Z,80.12
2023-05-16T07:52:04.065Z,79.46
2023-05-16T07:57:07.409Z,78.31
2023-05-16T08:02:11.245Z,77.98
2023-05-16T08:07:13.924Z,77.93
2023-05-16T08:12:16.551Z,77.99
2023-05-16T08:17:19.145Z,78.27
2023-05-16T08:22:21.747Z,77.42
2023-05-16T08:27:24.679Z,77.37
2023-05-16T08:32:27.451Z,77.37
2023-05-16T08:37:30.112Z,77.43
2023-05-16T08:42:34.040Z,76.02
2023-05-16T08:47:41.601Z,74.47
2023-05-16T08:52:47.247Z,73.33
2023-05-16T08:57:53.483Z,72.65
2023-05-16T09:02:56.593Z,73.71
2023-05-16T09:08:00.657Z,74.07
2023-05-16T09:13:05.515Z,74.39
2023-05-16T09:18:16.603Z,73.78
2023-05-16T09:23:25.700Z,72.67
2023-05-16T09:28:28.817Z,70.76
2023-05-16T09:33:31.688Z,68.75
2023-05-16T09:38:34.298Z,66.83
2023-05-16T09:43:41.802Z,64.60
2023-05-16T09:48:46.686Z,63.14
2023-05-16T09:53:49.621Z,61.08
2023-05-16T09:58:52.611Z,60.44
2023-05-16T10:03:55.831Z,60.90
2023-05-16T10:09:00.548Z,60.84
2023-05-16T10:14:07.953Z,60.51
2023-05-16T10:19:11.656Z,60.41
2023-05-16T10:24:22.400Z,59.83
2023-05-16T10:29:26.112Z,58.41
2023-05-16T10:34:29.390Z,55.73
2023-05-16T10:39:32.358Z,55.44
2023-05-16T10:44:38.661Z,55.86
2023-05-16T10:49:41.876Z,56.03
2023-05-16T10:54:54.041Z,55.12
2023-05-16T11:00:01.666Z,53.61
2023-05-16T11:05:06.784Z,53.33
2023-05-16T11:10:14.673Z,53.91
2023-05-16T11:15:28.903Z,54.95
2023-05-16T11:20:34.391Z,56.51
2023-05-16T11:25:41.129Z,58.27
2023-05-16T11:30:46.261Z,58.60
2023-05-16T11:41:16.875Z,56.96
2023-05-16T11:46:21.554Z,53.55
2023-05-16T11:51:24.462Z,52.92
2023-05-16T11:56:27.648Z,52.90
2023-05-16T12:01:35.475Z,53.91
2023-05-16T12:06:38.679Z,55.73
2023-05-16T12:11:43.504Z,56.57
2023-05-16T12:16:46.679Z,57.49
2023-05-16T12:21:53.370Z,57.86
2023-05-16T12:26:57.516Z,57.86
2023-05-16T12:32:00.239Z,56.70
2023-05-16T12:37:03.101Z,53.96
2023-05-16T12:42:07.346Z,52.07
2023-05-16T12:47:14.402Z,52.07
2023-05-16T12:52:21.500Z,52.47
2023-05-16T12:57:24.143Z,52.37
2023-05-16T13:02:26.863Z,50.79
2023-05-16T13:07:30.698Z,48.99
2023-05-16T13:12:33.622Z,48.99
2023-05-16T13:17:37.486Z,50.24
2023-05-16T13:22:44.832Z,51.35
2023-05-16T13:27:49.489Z,51.54
2023-05-16T13:32:52.780Z,50.58
2023-05-16T13:37:56.029Z,47.82
2023-05-16T13:42:58.809Z,46.39
2023-05-16T13:48:01.806Z,47.54
2023-05-16T13:53:04.498Z,48.75
2023-05-16T13:58:07.137Z,50.00
2023-05-16T14:03:09.910Z,50.61
2023-05-16T14:08:14.375Z,51.41
2023-05-16T14:13:17.045Z,52.94
2023-05-16T14:18:20.012Z,54.41
2023-05-16T14:23:25.909Z,55.76
2023-05-16T14:28:28.726Z,56.79
2023-05-16T14:33:32.940Z,57.07
2023-05-16T14:38:36.055Z,57.52
2023-05-16T14:43:38.965Z,57.90
2023-05-16T14:48:41.645Z,57.50
2023-05-16T14:53:46.617Z,56.16
2023-05-16T14:58:49.805Z,55.13
2023-05-16T15:03:55.974Z,54.74
2023-05-16T15:08:59.110Z,53.72
2023-05-16T15:14:02.017Z,52.28
2023-05-16T15:19:04.851Z,50.66
2023-05-16T15:24:08.296Z,48.40
2023-05-16T15:29:11.443Z,47.21
2023-05-16T15:34:14.157Z,47.20
2023-05-16T15:39:16.795Z,45.51
2023-05-16T15:44:19.374Z,45.95
2023-05-16T15:49:22.160Z,45.03
2023-05-16T15:54:24.781Z,42.28
2023-05-16T15:59:27.440Z,40.24
2023-05-16T16:04:30.059Z,40.79
2023-05-16T16:09:32.690Z,41.16
2023-05-16T16:14:35.301Z,40.62
2023-05-16T16:19:37.935Z,40.25
2023-05-16T16:24:40.923Z,40.97
2023-05-16T16:29:43.553Z,43.68
2023-05-16T16:34:46.128Z,45.08
2023-05-16T16:39:48.749Z,46.51
2023-05-16T16:44:55.327Z,48.07
2023-05-16T16:49:58.651Z,49.81
2023-05-16T16:55:01.391Z,51.28
2023-05-16T17:00:07.306Z,52.87
2023-05-16T17:05:10.533Z,54.11
2023-05-16T17:10:13.205Z,55.37
2023-05-16T17:15:17.495Z,56.85
2023-05-16T17:20:20.264Z,57.83
2023-05-16T17:25:23.096Z,58.62
2023-05-16T17:30:26.278Z,59.73
2023-05-16T17:35:29.358Z,61.47
2023-05-16T17:40:32.661Z,62.36
2023-05-16T17:45:35.390Z,62.92
2023-05-16T17:50:38.040Z,64.71
2023-05-16T17:55:40.728Z,66.07
2023-05-16T18:00:48.488Z,67.14
2023-05-16T18:05:51.802Z,68.32
2023-05-16T18:10:55.685Z,69.40
2023-05-16T18:15:58.376Z,69.29
2023-05-16T18:21:01.115Z,70.26
2023-05-16T18:26:03.840Z,71.05
2023-05-16T18:31:06.933Z,71.60
2023-05-16T18:36:10.408Z,71.86
2023-05-16T18:41:13.079Z,72.60
2023-05-16T18:46:15.672Z,73.17
2023-05-16T18:51:18.618Z,74.17
2023-05-16T18:56:22.438Z,74.29
2023-05-16T19:01:25.574Z,74.81
2023-05-16T19:06:28.340Z,75.57
2023-05-16T19:11:30.991Z,76.16
2023-05-16T19:16:34.243Z,76.46
2023-05-16T19:21:38.022Z,76.91
2023-05-16T19:26:40.773Z,76.92
2023-05-16T19:31:43.420Z,76.46
2023-05-16T19:36:46.858Z,77.17
2023-05-16T19:41:52.296Z,77.95
2023-05-16T19:46:55.073Z,77.76
2023-05-16T19:51:57.854Z,77.64
2023-05-16T19:57:00.541Z,78.45
2023-05-16T20:02:04.325Z,78.77
2023-05-16T20:07:07.512Z,78.57
2023-05-16T20:12:10.237Z,79.13
2023-05-16T20:17:12.939Z,78.88
2023-05-16T20:22:15.745Z,79.74
2023-05-16T20:27:18.380Z,80.53
2023-05-16T20:32:21.318Z,80.37
2023-05-16T20:37:26.839Z,80.61
2023-05-16T20:42:29.671Z,80.38
2023-05-16T20:47:32.338Z,80.62
2023-05-16T20:52:34.980Z,80.67
2023-05-16T20:57:37.623Z,80.88
2023-05-16T21:02:42.892Z,81.02
2023-05-16T21:07:46.729Z,81.29
2023-05-16T21:12:51.262Z,80.77
2023-05-16T21:17:53.916Z,80.60
2023-05-16T21:22:57.274Z,80.36
2023-05-16T21:28:00.540Z,79.85
2023-05-16T21:33:03.286Z,80.09
2023-05-16T21:38:06.349Z,79.54
2023-05-16T21:43:08.983Z,79.45
2023-05-16T21:48:12.042Z,79.36
2023-05-16T21:53:14.803Z,79.55
2023-05-16T21:58:19.159Z,79.68
2023-05-16T22:03:24.486Z,79.68
2023-05-16T22:08:27.142Z,79.50
2023-05-16T22:13:29.753Z,79.31
2023-05-16T22:18:33.368Z,79.47
2023-05-16T22:23:36.402Z,78.84
2023-05-16T22:28:39.018Z,78.22
2023-05-16T22:33:41.753Z,77.90
2023-05-16T22:38:44.471Z,78.02
2023-05-16T22:43:47.141Z,77.37
2023-05-16T22:48:49.849Z,77.33
2023-05-16T22:53:52.467Z,77.28
2023-05-16T22:58:55.173Z,74.79
2023-05-16T23:03:57.862Z,73.31
2023-05-16T23:09:00.781Z,73.94
2023-05-16T23:14:03.378Z,74.29
2023-05-16T23:19:09.124Z,74.73
2023-05-16T23:24:12.174Z,75.08
2023-05-16T23:29:14.768Z,76.10
2023-05-16T23:34:17.358Z,77.34
2023-05-16T23:39:21.373Z,78.19
2023-05-16T23:44:23.952Z,79.15
2023-05-16T23:49:26.724Z,79.83
2023-05-16T23:54:29.531Z,79.96
2023-05-16T23:59:32.125Z,79.96
